createdAt,value
2017-09-25T00:00:25.083Z,12.90
2017-09-25T00:03:27.156Z,12.80
2017-09-25T00:06:29.448Z,12.80
2017-09-25T00:09:31.433Z,12.80
2017-09-25T00:12:33.797Z,12.70
2017-09-25T00:15:35.753Z,12.70
2017-09-25T00:18:38.125Z,12.60
2017-09-25T00:21:40.279Z,12.60
2017-09-25T00:24:42.626Z,12.60
2017-09-25T00:27:44.664Z,12.70
2017-09-25T00:30:47.061Z,12.70
2017-09-25T00:33:49.084Z,12.70
2017-09-25T00:36:51.439Z,12.70
2017-09-25T00:39:53.376Z,12.70
2017-09-25T00:42:55.781Z,12.70
2017-09-25T00:45:57.792Z,12.70
2017-09-25T00:49:00.143Z,12.80
2017-09-25T00:52:02.084Z,12.80
2017-09-25T00:55:16.337Z,12.90
2017-09-25T00:58:18.299Z,12.90
2017-09-25T01:01:20.640Z,13.00
2017-09-25T01:08:00.773Z,13.20
2017-09-25T01:11:02.741Z,13.10
2017-09-25T01:14:05.093Z,13.20
2017-09-25T01:17:07.060Z,13.20
2017-09-25T01:20:09.382Z,13.30
2017-09-25T01:23:11.328Z,13.30
2017-09-25T01:26:13.713Z,13.30
2017-09-25T01:29:15.688Z,13.30
2017-09-25T01:32:18.007Z,13.30
2017-09-25T01:35:20.044Z,13.30
2017-09-25T01:38:22.505Z,13.30
2017-09-25T01:41:24.455Z,13.20
2017-09-25T01:44:26.847Z,13.20
2017-09-25T01:47:28.793Z,13.10
2017-09-25T01:50:31.115Z,13.10
2017-09-25T01:53:33.065Z,13.00
2017-09-25T01:56:35.532Z,13.00
2017-09-25T01:59:37.476Z,12.90
2017-09-25T02:02:39.840Z,12.90
2017-09-25T02:05:41.949Z,12.80
2017-09-25T02:08:45.066Z,12.80
2017-09-25T02:11:47.025Z,12.80
2017-09-25T02:14:49.073Z,12.80
2017-09-25T02:17:51.213Z,12.80
2017-09-25T02:20:53.270Z,12.80
2017-09-25T02:23:55.265Z,12.90
2017-09-25T02:26:57.258Z,12.90
2017-09-25T02:29:59.302Z,12.90
2017-09-25T02:33:01.266Z,13.00
2017-09-25T02:36:03.229Z,13.00
2017-09-25T02:39:05.268Z,13.00
2017-09-25T02:42:07.259Z,13.10
2017-09-25T02:45:09.219Z,13.10
2017-09-25T02:48:11.920Z,13.20
2017-09-25T02:51:13.986Z,13.10
2017-09-25T02:54:15.927Z,13.20
2017-09-25T02:57:18.048Z,13.20
2017-09-25T03:00:20.837Z,13.20
2017-09-25T03:03:22.794Z,13.20
2017-09-25T03:06:24.743Z,13.30
2017-09-25T03:09:26.758Z,13.30
2017-09-25T03:12:28.792Z,13.30
2017-09-25T03:15:30.725Z,13.30
2017-09-25T03:18:34.288Z,13.40
2017-09-25T03:21:36.286Z,13.30
2017-09-25T03:24:39.088Z,13.40
2017-09-25T03:27:41.141Z,13.40
2017-09-25T03:30:43.081Z,13.40
2017-09-25T03:33:45.156Z,13.40
2017-09-25T03:36:47.135Z,13.40
2017-09-25T03:39:49.170Z,13.40
2017-09-25T03:42:51.211Z,13.40
2017-09-25T03:45:53.236Z,13.40
2017-09-25T03:48:55.854Z,13.40
2017-09-25T03:51:57.821Z,13.40
2017-09-25T03:55:00.624Z,13.40
2017-09-25T03:58:02.654Z,13.40
2017-09-25T04:01:04.612Z,13.50
2017-09-25T04:04:07.543Z,13.50
2017-09-25T04:07:09.497Z,13.50
2017-09-25T04:10:12.372Z,13.50
2017-09-25T04:13:15.171Z,13.60
2017-09-25T04:16:18.072Z,13.50
2017-09-25T04:19:20.103Z,13.60
2017-09-25T04:22:22.061Z,13.60
2017-09-25T04:25:24.739Z,13.60
2017-09-25T04:28:26.702Z,13.60
2017-09-25T04:31:28.700Z,13.60
2017-09-25T04:34:30.805Z,13.60
2017-09-25T04:37:34.325Z,13.70
2017-09-25T04:40:36.300Z,13.70
2017-09-25T04:43:38.342Z,13.70
2017-09-25T04:46:40.309Z,13.70
2017-09-25T04:49:42.391Z,13.70
2017-09-25T04:52:44.691Z,13.70
2017-09-25T04:55:46.642Z,13.80
2017-09-25T04:58:49.103Z,13.80
2017-09-25T05:01:51.044Z,13.80
2017-09-25T05:04:52.992Z,13.80
2017-09-25T05:07:54.950Z,13.80
2017-09-25T05:10:56.994Z,13.80
2017-09-25T05:13:59.056Z,13.80
2017-09-25T05:17:01.056Z,13.90
2017-09-25T05:20:03.052Z,13.90
2017-09-25T05:23:05.001Z,13.90
2017-09-25T05:26:07.049Z,13.90
2017-09-25T05:29:08.992Z,13.90
2017-09-25T05:32:11.053Z,13.90
2017-09-25T05:35:13.091Z,13.90
2017-09-25T05:38:15.032Z,13.90
2017-09-25T05:41:17.092Z,13.90
2017-09-25T05:44:19.037Z,14.00
2017-09-25T05:47:21.111Z,14.00
2017-09-25T05:50:23.042Z,14.00
2017-09-25T05:53:25.089Z,14.00
2017-09-25T05:56:27.028Z,14.10
2017-09-25T05:59:29.092Z,14.10
2017-09-25T06:02:31.419Z,14.10
2017-09-25T06:05:34.418Z,14.10
2017-09-25T06:08:36.776Z,14.10
2017-09-25T06:11:38.716Z,14.10
2017-09-25T06:14:40.712Z,14.20
2017-09-25T06:17:44.254Z,14.20
2017-09-25T06:20:46.208Z,14.20
2017-09-25T06:23:48.169Z,14.30
2017-09-25T06:26:50.125Z,14.30
2017-09-25T06:29:52.166Z,14.30
2017-09-25T06:32:54.406Z,14.30
2017-09-25T06:35:56.722Z,14.30
2017-09-25T06:38:59.542Z,14.40
2017-09-25T06:42:01.580Z,14.30
2017-09-25T06:45:03.528Z,14.40
2017-09-25T06:48:05.689Z,14.40
2017-09-25T06:51:07.746Z,14.40
2017-09-25T06:54:09.696Z,14.40
2017-09-25T06:57:11.730Z,14.40
2017-09-25T07:00:13.669Z,14.50
2017-09-25T07:03:15.733Z,14.50
2017-09-25T07:06:17.776Z,14.50
2017-09-25T07:09:19.844Z,14.60
2017-09-25T07:12:21.812Z,14.60
2017-09-25T07:15:23.768Z,14.60
2017-09-25T07:18:25.742Z,14.60
2017-09-25T07:21:28.539Z,14.60
2017-09-25T07:24:31.187Z,14.60
2017-09-25T07:27:34.465Z,14.60
2017-09-25T07:30:37.170Z,14.60
2017-09-25T07:33:39.520Z,14.60
2017-09-25T07:36:41.563Z,14.60
2017-09-25T07:39:43.919Z,14.60
2017-09-25T07:42:45.860Z,14.80
2017-09-25T07:45:48.138Z,14.90
2017-09-25T07:48:50.176Z,14.90
2017-09-25T07:51:52.523Z,15.00
2017-09-25T07:54:54.481Z,15.10
2017-09-25T07:57:56.865Z,15.20
2017-09-25T08:00:58.893Z,15.40
2017-09-25T08:04:01.250Z,15.50
2017-09-25T08:07:03.304Z,15.70
2017-09-25T08:10:05.681Z,15.80
2017-09-25T08:13:07.725Z,15.90
2017-09-25T08:16:10.058Z,15.90
2017-09-25T08:19:12.017Z,15.90
2017-09-25T08:22:14.471Z,15.90
2017-09-25T08:25:16.402Z,15.80
2017-09-25T08:28:18.784Z,15.80
2017-09-25T08:31:20.764Z,15.80
2017-09-25T08:34:23.087Z,15.80
2017-09-25T08:37:25.130Z,15.70
2017-09-25T08:40:27.484Z,15.70
2017-09-25T08:43:29.444Z,15.70
2017-09-25T08:46:31.843Z,15.70
2017-09-25T08:49:34.560Z,15.60
2017-09-25T08:52:36.919Z,15.60
2017-09-25T08:55:38.891Z,15.60
2017-09-25T08:58:41.229Z,15.60
2017-09-25T09:01:43.180Z,15.70
2017-09-25T09:04:46.174Z,15.70
2017-09-25T09:07:48.188Z,15.80
2017-09-25T09:10:50.597Z,15.80
2017-09-25T09:13:53.410Z,15.90
2017-09-25T09:16:55.772Z,15.90
2017-09-25T09:19:57.703Z,16.10
2017-09-25T09:23:00.079Z,16.30
2017-09-25T09:26:02.020Z,16.50
2017-09-25T09:29:04.385Z,16.70
2017-09-25T09:32:06.345Z,16.90
2017-09-25T09:35:08.704Z,17.10
2017-09-25T09:38:10.719Z,17.40
2017-09-25T09:41:13.105Z,17.70
2017-09-25T09:44:15.043Z,17.70
2017-09-25T09:47:17.508Z,17.60
2017-09-25T09:50:19.538Z,17.60
2017-09-25T09:53:21.920Z,17.40
2017-09-25T09:56:23.962Z,17.40
2017-09-25T09:59:26.328Z,17.30
2017-09-25T10:02:28.272Z,17.30
2017-09-25T10:05:30.640Z,17.20
2017-09-25T10:08:32.594Z,17.10
2017-09-25T10:11:35.037Z,17.10
2017-09-25T10:14:37.086Z,17.00
2017-09-25T10:17:39.456Z,17.00
2017-09-25T10:20:41.408Z,17.00
2017-09-25T10:23:43.764Z,17.00
2017-09-25T10:26:45.709Z,17.00
2017-09-25T10:29:48.059Z,17.00
2017-09-25T10:32:50.003Z,17.00
2017-09-25T10:35:52.379Z,17.00
2017-09-25T10:38:54.318Z,17.10
2017-09-25T10:41:56.701Z,17.20
2017-09-25T10:44:58.745Z,17.40
2017-09-25T10:48:01.089Z,17.60
2017-09-25T10:51:03.033Z,17.90
2017-09-25T10:54:05.390Z,18.20
2017-09-25T10:57:07.333Z,18.50
2017-09-25T11:00:09.708Z,18.70
2017-09-25T11:03:11.758Z,18.80
2017-09-25T11:06:14.121Z,18.70
2017-09-25T11:09:16.830Z,18.70
2017-09-25T11:12:19.949Z,18.70
2017-09-25T11:15:21.920Z,18.70
2017-09-25T11:18:25.167Z,18.60
2017-09-25T11:21:28.165Z,18.50
2017-09-25T11:24:30.499Z,18.50
2017-09-25T11:27:32.470Z,18.40
2017-09-25T11:30:34.906Z,18.30
2017-09-25T11:33:36.866Z,18.20
2017-09-25T11:36:39.227Z,18.20
2017-09-25T11:39:41.155Z,18.20
2017-09-25T11:42:43.524Z,18.20
2017-09-25T11:45:45.590Z,18.40
2017-09-25T11:48:47.936Z,18.80
2017-09-25T11:51:49.958Z,20.20
2017-09-25T11:54:52.359Z,21.70
2017-09-25T11:57:54.375Z,23.70
2017-09-25T12:00:56.741Z,26.00
2017-09-25T12:03:58.681Z,28.50
2017-09-25T12:07:01.058Z,30.60
2017-09-25T12:10:03.017Z,31.30
2017-09-25T12:13:06.156Z,31.70
2017-09-25T12:16:08.147Z,31.60
2017-09-25T12:19:10.484Z,32.60
2017-09-25T12:22:12.527Z,33.20
2017-09-25T12:25:14.888Z,33.80
2017-09-25T12:28:16.933Z,34.10
2017-09-25T12:31:19.240Z,34.20
2017-09-25T12:34:21.954Z,31.60
2017-09-25T12:37:24.317Z,31.60
2017-09-25T12:40:26.263Z,29.80
2017-09-25T12:43:28.638Z,27.80
2017-09-25T12:46:30.586Z,26.30
2017-09-25T12:49:32.939Z,24.90
2017-09-25T12:52:34.880Z,23.80
2017-09-25T12:55:37.256Z,22.90
2017-09-25T12:58:39.719Z,22.20
2017-09-25T13:01:42.080Z,21.80
2017-09-25T13:04:44.019Z,21.60
2017-09-25T13:07:46.374Z,22.90
2017-09-25T13:10:48.356Z,25.50
2017-09-25T13:13:50.661Z,27.70
2017-09-25T13:16:53.364Z,29.50
2017-09-25T13:19:55.690Z,30.70
2017-09-25T13:22:57.740Z,31.80
2017-09-25T13:26:00.015Z,32.80
2017-09-25T13:29:01.980Z,33.10
2017-09-25T13:32:04.343Z,33.30
2017-09-25T13:35:06.284Z,34.30
2017-09-25T13:38:08.663Z,34.90
2017-09-25T13:41:10.605Z,34.90
2017-09-25T13:44:12.960Z,35.10
2017-09-25T13:47:14.893Z,35.00
2017-09-25T13:50:17.269Z,35.00
2017-09-25T13:53:19.315Z,34.40
2017-09-25T13:56:21.675Z,33.60
2017-09-25T14:02:31.515Z,30.20
2017-09-25T14:05:33.523Z,28.20
2017-09-25T14:08:36.631Z,25.00
2017-09-25T14:11:38.579Z,24.90
2017-09-25T14:14:40.890Z,23.90
2017-09-25T14:17:43.606Z,22.30
2017-09-25T14:20:46.065Z,22.20
2017-09-25T14:23:48.033Z,21.70
2017-09-25T14:26:50.384Z,21.30
2017-09-25T14:29:52.318Z,21.00
2017-09-25T14:32:54.780Z,20.70
2017-09-25T14:35:56.735Z,20.40
2017-09-25T14:38:59.052Z,20.20
2017-09-25T14:42:01.029Z,20.10
2017-09-25T14:45:03.387Z,20.00
2017-09-25T14:48:05.457Z,19.90
2017-09-25T14:51:07.830Z,19.90
2017-09-25T14:54:10.601Z,20.60
2017-09-25T14:57:13.753Z,20.80
2017-09-25T15:00:15.792Z,20.80
2017-09-25T15:03:18.140Z,20.80
2017-09-25T15:06:20.087Z,20.60
2017-09-25T15:09:22.451Z,20.80
2017-09-25T15:12:24.602Z,20.90
2017-09-25T15:15:26.967Z,21.10
2017-09-25T15:18:28.907Z,21.50
2017-09-25T15:21:31.272Z,21.90
2017-09-25T15:24:33.386Z,22.10
2017-09-25T15:27:36.496Z,22.30
2017-09-25T15:30:38.536Z,22.20
2017-09-25T15:33:40.880Z,22.40
2017-09-25T15:36:42.840Z,22.30
2017-09-25T15:39:45.212Z,22.10
2017-09-25T15:42:47.152Z,22.00
2017-09-25T15:45:49.515Z,21.70
2017-09-25T15:48:51.557Z,21.50
2017-09-25T15:51:53.930Z,21.30
2017-09-25T15:54:55.977Z,21.00
2017-09-25T15:57:58.339Z,20.60
2017-09-25T16:01:00.293Z,20.30
2017-09-25T16:04:03.412Z,19.90
2017-09-25T16:07:06.132Z,19.30
2017-09-25T16:10:08.475Z,19.30
2017-09-25T16:13:10.426Z,19.00
2017-09-25T16:16:12.987Z,18.80
2017-09-25T16:19:14.953Z,18.50
2017-09-25T16:22:17.306Z,18.30
2017-09-25T16:25:20.040Z,18.10
2017-09-25T16:28:22.433Z,17.90
2017-09-25T16:31:24.481Z,17.80
2017-09-25T16:34:26.801Z,17.60
2017-09-25T16:37:28.786Z,17.50
2017-09-25T16:40:31.149Z,17.50
2017-09-25T16:43:33.194Z,17.40
2017-09-25T16:46:35.555Z,17.40
2017-09-25T16:49:37.487Z,17.40
2017-09-25T16:52:39.847Z,17.40
2017-09-25T16:55:41.795Z,17.40
2017-09-25T16:58:44.109Z,17.30
2017-09-25T17:01:46.918Z,17.10
2017-09-25T17:04:49.286Z,17.10
2017-09-25T17:07:51.232Z,17.00
2017-09-25T17:10:53.605Z,16.90
2017-09-25T17:13:55.550Z,16.90
2017-09-25T17:16:57.895Z,16.80
2017-09-25T17:19:59.842Z,16.70
2017-09-25T17:23:02.251Z,16.50
2017-09-25T17:26:04.253Z,16.40
2017-09-25T17:29:06.587Z,16.30
2017-09-25T17:32:09.491Z,16.10
2017-09-25T17:35:11.855Z,16.10
2017-09-25T17:38:13.883Z,16.10
2017-09-25T17:41:16.266Z,16.00
2017-09-25T17:44:18.225Z,15.90
2017-09-25T17:47:20.561Z,15.80
2017-09-25T17:50:22.638Z,15.70
2017-09-25T17:53:25.264Z,15.70
2017-09-25T17:56:27.218Z,15.60
2017-09-25T17:59:29.598Z,15.50
2017-09-25T18:02:31.543Z,15.30
2017-09-25T18:05:33.903Z,15.20
2017-09-25T18:08:35.878Z,15.10
2017-09-25T18:11:39.719Z,14.90
2017-09-25T18:14:41.680Z,14.90
2017-09-25T18:17:44.126Z,14.80
2017-09-25T18:20:46.098Z,14.80
2017-09-25T18:23:48.453Z,14.70
2017-09-25T18:26:50.502Z,14.70
2017-09-25T18:29:52.787Z,14.60
2017-09-25T18:32:54.989Z,14.50
2017-09-25T18:35:57.637Z,14.50
2017-09-25T18:39:00.442Z,14.30
2017-09-25T18:42:02.796Z,14.30
2017-09-25T18:45:04.748Z,14.30
2017-09-25T18:48:07.113Z,14.20
2017-09-25T18:51:09.163Z,14.10
2017-09-25T18:54:11.446Z,14.10
2017-09-25T18:57:13.493Z,14.00
2017-09-25T19:00:15.823Z,13.90
2017-09-25T19:03:17.772Z,13.90
2017-09-25T19:06:20.137Z,13.80
2017-09-25T19:09:22.095Z,13.80
2017-09-25T19:12:24.426Z,13.80
2017-09-25T19:15:26.498Z,13.80
2017-09-25T19:18:28.840Z,13.80
2017-09-25T19:21:30.806Z,13.80
2017-09-25T19:24:33.180Z,13.80
2017-09-25T19:27:35.120Z,13.80
2017-09-25T19:30:37.441Z,13.80
2017-09-25T19:33:39.384Z,13.80
2017-09-25T19:36:41.772Z,13.80
2017-09-25T19:39:43.808Z,13.70
2017-09-25T19:42:46.154Z,13.70
2017-09-25T19:45:48.099Z,13.70
2017-09-25T19:48:50.494Z,13.70
2017-09-25T19:51:52.615Z,13.70
2017-09-25T19:54:55.089Z,13.60
2017-09-25T19:57:57.046Z,13.60
2017-09-25T20:00:59.347Z,13.60
2017-09-25T20:04:02.270Z,13.50
2017-09-25T20:07:04.634Z,13.50
2017-09-25T20:10:06.601Z,13.50
2017-09-25T20:13:08.941Z,13.50
2017-09-25T20:16:11.275Z,13.50
2017-09-25T20:19:13.646Z,13.50
2017-09-25T20:22:15.615Z,13.50
2017-09-25T20:25:18.854Z,13.50
2017-09-25T20:28:20.997Z,13.50
2017-09-25T20:31:24.131Z,13.60
2017-09-25T20:34:26.962Z,13.60
2017-09-25T20:37:29.290Z,13.60
2017-09-25T20:40:31.247Z,13.60
2017-09-25T20:43:33.580Z,13.60
2017-09-25T20:46:35.619Z,13.70
2017-09-25T20:49:38.824Z,13.70
2017-09-25T20:52:40.768Z,13.60
2017-09-25T20:55:43.092Z,13.60
2017-09-25T20:58:45.911Z,13.50
2017-09-25T21:01:48.294Z,13.60
2017-09-25T21:04:50.325Z,13.50
2017-09-25T21:07:52.795Z,13.50
2017-09-25T21:10:54.830Z,13.40
2017-09-25T21:13:57.308Z,13.40
2017-09-25T21:16:59.258Z,13.30
2017-09-25T21:20:01.635Z,13.20
2017-09-25T21:23:03.680Z,13.20
2017-09-25T21:26:06.045Z,13.10
2017-09-25T21:29:08.183Z,13.00
2017-09-25T21:32:10.512Z,13.00
2017-09-25T21:35:12.448Z,12.90
2017-09-25T21:38:14.827Z,12.90
2017-09-25T21:41:16.788Z,12.80
2017-09-25T21:44:19.131Z,12.80
2017-09-25T21:47:21.149Z,12.80
2017-09-25T21:50:24.247Z,12.70
2017-09-25T21:53:26.213Z,12.70
2017-09-25T21:56:28.570Z,12.70
2017-09-25T21:59:30.620Z,12.70
2017-09-25T22:02:32.976Z,12.70
2017-09-25T22:05:34.967Z,12.70
2017-09-25T22:08:36.977Z,12.60
2017-09-25T22:11:39.021Z,12.60
2017-09-25T22:14:41.408Z,12.60
2017-09-25T22:17:43.419Z,12.60
2017-09-25T22:20:45.908Z,12.60
2017-09-25T22:23:48.036Z,12.60
2017-09-25T22:26:50.403Z,12.60
2017-09-25T22:29:52.451Z,12.60
2017-09-25T22:32:54.800Z,12.60
2017-09-25T22:35:56.732Z,12.60
2017-09-25T22:38:59.102Z,12.60
2017-09-25T22:42:01.717Z,12.70
2017-09-25T22:45:04.059Z,12.70
2017-09-25T22:48:05.998Z,12.70
2017-09-25T22:51:09.147Z,12.70
2017-09-25T22:54:12.079Z,12.80
2017-09-25T22:57:14.486Z,12.80
2017-09-25T23:00:16.426Z,12.90
2017-09-25T23:03:18.806Z,12.90
2017-09-25T23:06:20.870Z,12.90
2017-09-25T23:09:23.222Z,13.00
2017-09-25T23:12:25.187Z,13.00
2017-09-25T23:15:27.503Z,13.00
2017-09-25T23:18:29.466Z,13.10
2017-09-25T23:21:31.807Z,13.10
2017-09-25T23:24:33.749Z,13.10
2017-09-25T23:27:36.131Z,13.10
2017-09-25T23:30:38.137Z,13.10
2017-09-25T23:33:41.244Z,13.10
2017-09-25T23:36:43.189Z,13.00
2017-09-25T23:39:45.552Z,13.10
2017-09-25T23:42:47.479Z,13.10
2017-09-25T23:45:49.852Z,13.10
2017-09-25T23:48:51.798Z,13.10
2017-09-25T23:51:54.161Z,13.10
2017-09-25T23:54:56.136Z,13.10
2017-09-25T23:57:58.405Z,13.10
